Charlottesville Albemarle Airport
KCHO : rendu visible

Aérodrome :











RETROUVEZ-NOUS SUR...

 
LOGIN :

S'inscrire | Disclaimer

   EN    FR    IT 

 









Légende :    VFR   VFR Marginal   IFR   IFR Intensif   IFR Très Intensif
Visi : 
Plafond : 
>= 8 km
>= 3000ft
5 à 8 km
1000 à 3000 ft
1500m à 5 km
500 à 1000 ft
800 à 1500m
200 à 500 ft
< 800m
< 200 ft
Symboles :   Orages  Brouillard  Fortes neiges  Fortes précipitations  Vent > 20 kt






- Altitude de l'aérodrome : 639 ft
- Code IATA : CHO


KCHO - Charlottesville Albemarle

DERNIER METAR :
  • 050953Z 28003KT 6SM BR FEW012 22/20 A2998 RMK AO2 SLP143 T02220200

METARs EXPIRÉS :
  • 050853Z AUTO 00000KT 7SM CLR 22/20 A2997 RMK AO2 SLP139 T02220200 53001
  • 050753Z AUTO 27003KT 7SM CLR 22/20 A2996 RMK AO2 SLP135 T02220200

TAF KCHO
Valide du 05 à 06h jusqu'au 06 à 06h UTC


050541Z 0506/0606 00000KT P6SM BKN250
FM050900 00000KT 4SM BR SCT020 BKN060
FM051200 00000KT P6SM SCT020 BKN060
FM051400 VRB03KT P6SM SCT035
FM051800 18005KT P6SM VCTS SCT060CB
FM052200 18005KT P6SM SCT060
FM060100 VRB03KT P6SM SCT090
FIR KZDC / Amérique du Nord



MET'MAP, la Météo Aéronautique d'un coup d'oeil ! - Copyright ORBIFLY Décembre 2007 - Disclaimer

ORBIFLY MET'MAP TEAM :

Programmation & Développement : Alexandra Zaïnal
Sur une idée originale de : Baudouin d'Aumeries
Assistance à la programmation : Marc-Olivier Méhu
Soutien technique & logistique : Manuel Goepfert

Contact : metmap@orbifly.com




SOURCES & CREDITS :

   NOAA       Earth
Advisory